createdAt,value
2022-08-26T00:01:52.312Z,20.40
2022-08-26T00:04:19.159Z,18.80
2022-08-26T00:06:46.096Z,20.27
2022-08-26T00:09:16.204Z,20.52
2022-08-26T00:11:45.347Z,19.13
2022-08-26T00:14:13.362Z,21.60
2022-08-26T00:16:41.018Z,17.77
2022-08-26T00:19:14.366Z,23.55
2022-08-26T00:21:41.421Z,21.38
2022-08-26T00:24:08.100Z,19.63
2022-08-26T00:26:34.970Z,22.88
2022-08-26T00:29:01.984Z,23.83
2022-08-26T00:31:31.139Z,23.52
2022-08-26T00:33:58.888Z,23.40
2022-08-26T00:36:29.920Z,24.10
2022-08-26T00:38:57.966Z,19.35
2022-08-26T00:41:24.685Z,24.52
2022-08-26T00:43:53.286Z,18.55
2022-08-26T00:46:25.324Z,20.40
2022-08-26T00:49:05.585Z,20.60
2022-08-26T00:51:46.234Z,17.35
2022-08-26T00:54:13.787Z,20.42
2022-08-26T00:56:55.190Z,21.38
2022-08-26T00:59:23.884Z,21.42
2022-08-26T01:01:51.558Z,21.73
2022-08-26T01:04:21.682Z,24.90
2022-08-26T01:06:51.025Z,18.52
2022-08-26T01:09:18.732Z,18.90
2022-08-26T01:11:47.400Z,18.92
2022-08-26T01:14:14.598Z,18.85
2022-08-26T01:16:42.251Z,15.90
2022-08-26T01:19:45.606Z,19.13
2022-08-26T01:22:28.754Z,17.75
2022-08-26T01:24:58.614Z,22.13
2022-08-26T01:27:27.347Z,14.68
2022-08-26T01:30:00.510Z,15.15
2022-08-26T01:32:28.367Z,20.63
2022-08-26T01:34:55.098Z,18.02
2022-08-26T01:37:29.587Z,20.77
2022-08-26T01:39:57.328Z,14.13
2022-08-26T01:42:27.019Z,80.28
2022-08-26T01:45:10.353Z,25.52
2022-08-26T01:47:38.577Z,20.10
2022-08-26T01:50:11.867Z,25.63
2022-08-26T01:52:42.701Z,15.50
2022-08-26T01:55:10.325Z,14.13
2022-08-26T01:57:37.653Z,13.13
2022-08-26T02:00:08.089Z,16.55
2022-08-26T02:02:34.817Z,14.70
2022-08-26T02:05:06.613Z,17.38
2022-08-26T02:07:33.918Z,18.45
2022-08-26T02:10:00.814Z,12.85
2022-08-26T02:12:27.977Z,18.40
2022-08-26T02:15:00.827Z,15.10
2022-08-26T02:17:33.650Z,12.35
2022-08-26T02:20:02.774Z,14.43
2022-08-26T02:22:31.454Z,17.23
2022-08-26T02:25:10.897Z,17.63
2022-08-26T02:27:37.630Z,18.08
2022-08-26T02:30:20.630Z,18.55
2022-08-26T02:32:49.506Z,14.75
2022-08-26T02:35:20.349Z,13.23
2022-08-26T02:37:49.434Z,16.17
2022-08-26T02:40:19.204Z,18.23
2022-08-26T02:42:48.383Z,15.80
2022-08-26T02:45:16.780Z,24.58
2022-08-26T02:47:51.028Z,18.00
2022-08-26T02:50:18.051Z,15.15
2022-08-26T02:52:44.724Z,20.25
2022-08-26T02:55:11.777Z,21.33
2022-08-26T02:57:38.454Z,20.67
2022-08-26T03:00:08.594Z,18.95
2022-08-26T03:02:35.549Z,19.55
2022-08-26T03:05:02.666Z,16.52
2022-08-26T03:07:29.989Z,17.48
2022-08-26T03:09:57.977Z,21.13
2022-08-26T03:12:25.746Z,20.63
2022-08-26T03:14:52.964Z,20.95
2022-08-26T03:17:19.621Z,17.30
2022-08-26T03:19:46.562Z,23.42
2022-08-26T03:22:14.833Z,16.90
2022-08-26T03:24:46.035Z,27.60
2022-08-26T03:27:13.318Z,17.25
2022-08-26T03:29:59.840Z,16.17
2022-08-26T03:32:26.935Z,27.25
2022-08-26T03:34:54.049Z,19.48
2022-08-26T03:37:21.626Z,23.38
2022-08-26T03:39:49.426Z,30.10
2022-08-26T03:42:16.164Z,25.67
2022-08-26T03:44:43.118Z,21.27
2022-08-26T03:47:10.933Z,23.27
2022-08-26T03:49:38.183Z,24.75
2022-08-26T03:52:05.413Z,20.48
2022-08-26T03:54:32.847Z,19.88
2022-08-26T03:57:00.172Z,19.13
2022-08-26T03:59:27.406Z,16.83
2022-08-26T04:01:54.752Z,23.17
2022-08-26T04:04:22.827Z,13.80
2022-08-26T04:06:58.459Z,22.90
2022-08-26T04:09:26.398Z,20.25
2022-08-26T04:11:53.614Z,15.32
2022-08-26T04:14:24.224Z,22.30
2022-08-26T04:16:52.930Z,24.10
2022-08-26T04:19:22.625Z,18.10
2022-08-26T04:21:53.335Z,16.65
2022-08-26T04:24:22.463Z,17.95
2022-08-26T04:26:49.172Z,12.43
2022-08-26T04:29:19.837Z,14.73
2022-08-26T04:31:48.158Z,16.25
2022-08-26T04:34:16.365Z,12.48
2022-08-26T04:36:43.884Z,17.70
2022-08-26T04:39:12.829Z,16.83
2022-08-26T04:41:40.124Z,16.08
2022-08-26T04:44:06.942Z,16.45
2022-08-26T04:46:33.935Z,12.98
2022-08-26T04:49:01.113Z,18.15
2022-08-26T04:51:28.514Z,18.48
2022-08-26T04:53:58.973Z,13.75
2022-08-26T04:56:28.443Z,28.33
2022-08-26T04:58:55.283Z,16.40
2022-08-26T05:01:22.270Z,12.25
2022-08-26T05:03:50.914Z,12.68
2022-08-26T05:06:19.616Z,25.27
2022-08-26T05:08:46.800Z,20.38
2022-08-26T05:11:13.708Z,13.45
2022-08-26T05:13:41.386Z,16.00
2022-08-26T05:16:11.577Z,14.98
2022-08-26T05:18:39.688Z,16.48
2022-08-26T05:21:07.344Z,16.20
2022-08-26T05:23:36.284Z,23.55
2022-08-26T05:26:08.083Z,13.93
2022-08-26T05:28:35.130Z,18.17
2022-08-26T05:31:11.894Z,19.13
2022-08-26T05:33:41.451Z,18.65
2022-08-26T05:36:16.413Z,12.82
2022-08-26T05:38:43.992Z,17.70
2022-08-26T05:41:19.978Z,16.90
2022-08-26T05:43:46.851Z,16.75
2022-08-26T05:46:14.150Z,18.25
2022-08-26T05:48:44.250Z,10.38
2022-08-26T05:51:12.370Z,16.40
2022-08-26T05:53:41.088Z,17.75
2022-08-26T05:56:12.049Z,12.00
2022-08-26T05:58:40.728Z,13.40
2022-08-26T06:01:16.466Z,15.82
2022-08-26T06:03:46.176Z,11.40
2022-08-26T06:06:36.274Z,17.33
2022-08-26T06:09:06.427Z,15.98
2022-08-26T06:11:36.305Z,16.77
2022-08-26T06:14:05.326Z,15.00
2022-08-26T06:16:35.367Z,13.32
2022-08-26T06:19:10.500Z,18.00
2022-08-26T06:21:40.519Z,16.33
2022-08-26T06:24:29.701Z,13.60
2022-08-26T06:27:01.595Z,17.73
2022-08-26T06:29:31.380Z,25.60
2022-08-26T06:31:58.763Z,13.05
2022-08-26T06:34:30.314Z,12.45
2022-08-26T06:37:01.139Z,18.83
2022-08-26T06:39:30.819Z,18.38
2022-08-26T06:41:58.918Z,15.75
2022-08-26T06:44:25.818Z,16.55
2022-08-26T06:46:52.590Z,11.35
2022-08-26T06:49:27.008Z,16.83
2022-08-26T06:51:54.642Z,14.40
2022-08-26T06:54:22.371Z,13.00
2022-08-26T06:56:49.558Z,14.23
2022-08-26T06:59:16.261Z,17.35
2022-08-26T07:01:44.910Z,18.38
2022-08-26T07:04:15.638Z,15.38
2022-08-26T07:06:48.920Z,17.95
2022-08-26T07:09:16.824Z,18.45
2022-08-26T07:11:44.629Z,25.67
2022-08-26T07:14:12.185Z,23.10
2022-08-26T07:16:39.997Z,18.67
2022-08-26T07:19:10.843Z,17.73
2022-08-26T07:21:40.447Z,19.77
2022-08-26T07:24:08.304Z,17.83
2022-08-26T07:26:34.957Z,22.27
2022-08-26T07:29:01.808Z,23.77
2022-08-26T07:31:36.091Z,22.02
2022-08-26T07:34:07.676Z,26.77
2022-08-26T07:36:34.875Z,22.33
2022-08-26T07:39:01.648Z,22.33
2022-08-26T07:43:57.051Z,21.77
2022-08-26T07:46:27.270Z,26.15
2022-08-26T07:48:57.553Z,19.50
2022-08-26T07:51:24.898Z,23.45
2022-08-26T07:53:52.302Z,22.92
2022-08-26T07:56:20.947Z,27.67
2022-08-26T07:58:51.314Z,19.45
2022-08-26T08:01:19.054Z,24.88
2022-08-26T08:03:45.859Z,27.10
2022-08-26T08:06:12.510Z,29.50
2022-08-26T08:08:41.387Z,21.20
2022-08-26T08:11:08.324Z,21.50
2022-08-26T08:13:39.149Z,22.92
2022-08-26T08:16:06.953Z,23.58
2022-08-26T08:18:40.462Z,24.60
2022-08-26T08:21:23.769Z,20.70
2022-08-26T08:23:52.686Z,24.63
2022-08-26T08:26:19.665Z,30.17
2022-08-26T08:28:47.928Z,29.23
2022-08-26T08:31:52.073Z,27.90
2022-08-26T08:34:09.475Z,25.35
2022-08-26T08:36:36.477Z,25.08
2022-08-26T08:39:03.921Z,31.23
2022-08-26T08:42:07.487Z,31.15
2022-08-26T08:44:38.017Z,22.05
2022-08-26T08:47:45.380Z,26.50
2022-08-26T08:50:46.146Z,22.90
2022-08-26T08:53:34.782Z,31.88
2022-08-26T08:56:53.045Z,28.65
2022-08-26T08:59:25.538Z,28.33
2022-08-26T09:01:59.046Z,22.20
2022-08-26T09:04:51.742Z,27.00
2022-08-26T09:07:25.277Z,30.00
2022-08-26T09:09:59.976Z,27.88
2022-08-26T09:12:33.180Z,31.17
2022-08-26T09:15:07.701Z,24.25
2022-08-26T09:18:06.906Z,27.00
2022-08-26T09:21:03.507Z,32.33
2022-08-26T09:23:33.965Z,35.63
2022-08-26T09:26:18.660Z,28.23
2022-08-26T09:28:56.126Z,24.52
2022-08-26T09:31:31.967Z,22.92
2022-08-26T09:34:21.105Z,25.25
2022-08-26T09:36:56.403Z,25.75
2022-08-26T09:39:33.965Z,30.23
2022-08-26T09:42:24.672Z,24.80
2022-08-26T09:45:27.585Z,29.65
2022-08-26T09:47:57.374Z,25.40
2022-08-26T09:50:31.512Z,26.70
2022-08-26T09:53:28.819Z,27.20
2022-08-26T09:56:30.017Z,24.90
2022-08-26T09:58:57.870Z,26.63
2022-08-26T10:01:43.446Z,25.48
2022-08-26T10:04:17.062Z,23.80
2022-08-26T10:07:00.543Z,21.58
2022-08-26T10:09:29.922Z,20.00
2022-08-26T10:12:02.560Z,20.52
2022-08-26T10:17:20.847Z,21.80
2022-08-26T10:20:03.693Z,24.02
2022-08-26T10:22:51.070Z,20.50
2022-08-26T10:25:26.104Z,22.75
2022-08-26T10:28:42.140Z,19.52
2022-08-26T10:31:27.468Z,25.13
2022-08-26T10:34:00.087Z,24.75
2022-08-26T10:37:10.812Z,26.88
2022-08-26T10:40:00.563Z,24.67
2022-08-26T10:42:38.458Z,28.30
2022-08-26T10:45:15.057Z,20.30
2022-08-26T10:47:50.320Z,25.60
2022-08-26T10:50:18.047Z,54.50
2022-08-26T10:53:16.095Z,28.88
2022-08-26T10:56:03.221Z,24.13
2022-08-26T10:59:06.489Z,23.40
2022-08-26T11:01:57.887Z,20.95
2022-08-26T11:04:51.446Z,28.73
2022-08-26T11:07:40.862Z,26.88
2022-08-26T11:10:21.237Z,20.52
2022-08-26T11:13:08.910Z,25.88
2022-08-26T11:15:58.762Z,22.42
2022-08-26T11:18:40.449Z,24.33
2022-08-26T11:22:05.126Z,22.40
2022-08-26T11:24:53.231Z,19.25
2022-08-26T11:27:45.573Z,20.88
2022-08-26T11:30:38.562Z,27.23
2022-08-26T11:33:07.877Z,18.90
2022-08-26T11:35:34.625Z,22.83
2022-08-26T11:38:21.964Z,18.40
2022-08-26T11:40:57.993Z,20.95
2022-08-26T11:43:29.879Z,20.05
2022-08-26T11:46:09.243Z,21.63
2022-08-26T11:48:42.358Z,21.83
2022-08-26T11:51:21.058Z,19.00
2022-08-26T11:53:48.646Z,18.33
2022-08-26T11:56:26.491Z,25.90
2022-08-26T11:58:58.562Z,22.88
2022-08-26T12:01:35.654Z,21.05
2022-08-26T12:04:08.235Z,24.77
2022-08-26T12:09:20.650Z,17.70
2022-08-26T12:11:47.608Z,20.15
2022-08-26T12:14:24.261Z,23.45
2022-08-26T12:16:52.136Z,21.50
2022-08-26T12:19:37.006Z,20.08
2022-08-26T12:22:28.421Z,19.05
2022-08-26T12:25:00.644Z,20.70
2022-08-26T12:27:29.909Z,19.45
2022-08-26T12:30:12.390Z,20.13
2022-08-26T12:32:57.239Z,19.02
2022-08-26T12:35:26.852Z,14.95
2022-08-26T12:37:54.303Z,22.27
2022-08-26T12:40:57.041Z,19.85
2022-08-26T12:43:44.904Z,12.30
2022-08-26T12:46:24.375Z,23.42
2022-08-26T12:48:51.088Z,16.92
2022-08-26T12:51:32.267Z,20.80
2022-08-26T12:53:59.918Z,20.20
2022-08-26T12:56:53.111Z,19.17
2022-08-26T12:59:25.987Z,16.20
2022-08-26T13:01:53.808Z,18.65
2022-08-26T13:04:41.098Z,24.83
2022-08-26T13:07:34.123Z,19.30
2022-08-26T13:10:01.153Z,20.85
2022-08-26T13:12:33.272Z,15.95
2022-08-26T13:17:28.970Z,20.02
2022-08-26T13:20:00.041Z,17.77
2022-08-26T13:22:29.580Z,26.13
2022-08-26T13:24:57.133Z,22.23
2022-08-26T13:27:26.257Z,20.45
2022-08-26T13:29:54.484Z,14.50
2022-08-26T13:32:22.514Z,17.40
2022-08-26T13:34:55.333Z,13.75
2022-08-26T13:37:24.342Z,20.23
2022-08-26T13:40:04.811Z,15.38
2022-08-26T13:42:31.575Z,17.33
2022-08-26T13:44:58.894Z,16.92
2022-08-26T13:47:26.149Z,25.15
2022-08-26T13:49:55.463Z,13.82
2022-08-26T13:52:29.147Z,18.45
2022-08-26T13:55:00.254Z,11.77
2022-08-26T13:57:28.584Z,20.88
2022-08-26T13:59:57.097Z,18.65
2022-08-26T14:02:24.000Z,19.83
2022-08-26T14:04:50.986Z,15.43
2022-08-26T14:07:17.830Z,33.80
2022-08-26T14:09:44.437Z,29.05
2022-08-26T14:12:11.118Z,36.50
2022-08-26T14:14:37.905Z,19.88
2022-08-26T14:17:04.587Z,19.35
2022-08-26T14:19:32.063Z,11.93
2022-08-26T14:22:00.929Z,22.05
2022-08-26T14:24:28.002Z,13.35
2022-08-26T14:26:54.847Z,31.33
2022-08-26T14:29:23.462Z,27.80
2022-08-26T14:31:50.311Z,18.15
2022-08-26T14:34:17.221Z,19.13
2022-08-26T14:36:43.887Z,20.27
2022-08-26T14:39:13.230Z,21.27
2022-08-26T14:41:54.496Z,13.35
2022-08-26T14:44:29.068Z,26.85
2022-08-26T14:46:56.193Z,16.55
2022-08-26T14:49:24.438Z,12.85
2022-08-26T14:51:51.158Z,15.68
2022-08-26T14:54:18.743Z,14.63
2022-08-26T14:56:55.673Z,14.45
2022-08-26T14:59:31.939Z,19.05
2022-08-26T15:01:59.195Z,20.13
2022-08-26T15:04:26.257Z,14.63
2022-08-26T15:06:54.793Z,18.40
2022-08-26T15:09:22.964Z,16.10
2022-08-26T15:11:50.506Z,16.20
2022-08-26T15:14:19.113Z,17.38
2022-08-26T15:16:50.889Z,18.77
2022-08-26T15:19:18.249Z,12.83
2022-08-26T15:21:45.626Z,16.77
2022-08-26T15:24:13.138Z,11.77
2022-08-26T15:26:39.862Z,15.40
2022-08-26T15:29:06.805Z,18.27
2022-08-26T15:31:34.098Z,16.10
2022-08-26T15:34:04.514Z,17.23
2022-08-26T15:36:32.656Z,14.65
2022-08-26T15:39:00.487Z,13.80
2022-08-26T15:41:27.984Z,17.75
2022-08-26T15:43:54.591Z,16.73
2022-08-26T15:46:21.474Z,13.73
2022-08-26T15:48:48.204Z,17.20
2022-08-26T15:51:32.954Z,15.93
2022-08-26T15:54:01.563Z,16.55
2022-08-26T15:56:31.038Z,11.68
2022-08-26T15:58:58.178Z,17.40
2022-08-26T16:01:27.658Z,17.95
2022-08-26T16:03:55.239Z,12.52
2022-08-26T16:06:27.557Z,16.55
2022-08-26T16:08:56.081Z,16.35
2022-08-26T16:11:23.509Z,12.13
2022-08-26T16:13:50.620Z,21.42
2022-08-26T16:16:17.809Z,14.77
2022-08-26T16:18:44.966Z,18.30
2022-08-26T16:21:17.478Z,17.35
2022-08-26T16:23:44.988Z,22.42
2022-08-26T16:26:17.966Z,19.58
2022-08-26T16:28:45.274Z,12.25
2022-08-26T16:31:12.507Z,16.25
2022-08-26T16:33:39.435Z,20.02
2022-08-26T16:36:07.354Z,15.52
2022-08-26T16:38:34.857Z,25.05
2022-08-26T16:41:02.064Z,16.55
2022-08-26T16:43:31.581Z,14.00
2022-08-26T16:45:58.459Z,20.70
2022-08-26T16:48:27.968Z,14.88
2022-08-26T16:50:55.705Z,21.35
2022-08-26T16:53:23.150Z,16.65
2022-08-26T16:55:50.896Z,15.98
2022-08-26T16:58:18.511Z,17.23
2022-08-26T17:00:45.613Z,15.45
2022-08-26T17:03:12.763Z,15.75
2022-08-26T17:05:40.237Z,15.32
2022-08-26T17:08:07.290Z,14.52
2022-08-26T17:10:34.791Z,19.17
2022-08-26T17:13:01.514Z,17.08
2022-08-26T17:15:28.460Z,15.90
2022-08-26T17:17:56.605Z,20.30
2022-08-26T17:20:24.920Z,15.50
2022-08-26T17:22:53.926Z,15.73
2022-08-26T17:25:29.794Z,18.40
2022-08-26T17:30:30.810Z,14.25
2022-08-26T17:32:58.302Z,15.50
2022-08-26T17:35:26.764Z,14.10
2022-08-26T17:37:53.417Z,17.90
2022-08-26T17:40:22.501Z,17.13
2022-08-26T17:42:49.652Z,19.88
2022-08-26T17:45:17.795Z,18.23
2022-08-26T17:47:45.326Z,24.88
2022-08-26T17:50:15.221Z,16.05
2022-08-26T17:52:43.997Z,19.63
2022-08-26T17:55:13.377Z,19.38
2022-08-26T17:57:40.892Z,16.60
2022-08-26T18:00:13.838Z,19.85
2022-08-26T18:02:42.041Z,16.75
2022-08-26T18:05:11.963Z,17.23
2022-08-26T18:07:43.914Z,16.17
2022-08-26T18:10:13.330Z,20.60
2022-08-26T18:12:41.478Z,18.45
2022-08-26T18:15:09.914Z,17.92
2022-08-26T18:17:37.715Z,21.58
2022-08-26T18:20:05.294Z,16.35
2022-08-26T18:22:32.134Z,17.05
2022-08-26T18:24:59.066Z,15.90
2022-08-26T18:27:26.397Z,15.80
2022-08-26T18:29:53.074Z,15.88
2022-08-26T18:32:19.727Z,14.48
2022-08-26T18:34:46.566Z,15.40
2022-08-26T18:39:45.690Z,12.73
2022-08-26T18:42:12.838Z,14.30
2022-08-26T18:44:39.405Z,22.65
2022-08-26T18:47:06.226Z,12.45
2022-08-26T18:49:33.005Z,11.38
2022-08-26T18:51:59.683Z,9.30
2022-08-26T18:54:26.382Z,11.98
2022-08-26T18:56:53.121Z,16.65
2022-08-26T18:59:19.944Z,9.32
2022-08-26T19:01:56.928Z,12.85
2022-08-26T19:04:23.628Z,14.70
2022-08-26T19:06:51.261Z,8.80
2022-08-26T19:09:19.125Z,8.93
2022-08-26T19:11:49.663Z,12.10
2022-08-26T19:14:17.347Z,12.93
2022-08-26T19:16:46.823Z,9.75
2022-08-26T19:19:14.826Z,7.07
2022-08-26T19:21:41.600Z,10.85
2022-08-26T19:24:15.278Z,9.30
2022-08-26T19:26:46.789Z,10.88
2022-08-26T19:29:14.003Z,13.23
2022-08-26T19:31:42.197Z,7.47
2022-08-26T19:34:10.820Z,14.40
2022-08-26T19:36:38.149Z,9.35
2022-08-26T19:39:08.684Z,11.88
2022-08-26T19:41:38.013Z,7.07
2022-08-26T19:44:38.355Z,12.10
2022-08-26T19:47:07.797Z,7.05
2022-08-26T19:49:34.868Z,10.43
2022-08-26T19:52:03.007Z,7.63
2022-08-26T19:54:30.134Z,15.10
2022-08-26T19:56:56.839Z,10.18
2022-08-26T19:59:23.519Z,11.80
2022-08-26T20:02:00.386Z,11.63
2022-08-26T20:04:27.641Z,9.70
2022-08-26T20:06:57.871Z,23.35
2022-08-26T20:09:30.350Z,9.57
2022-08-26T20:11:57.348Z,8.50
2022-08-26T20:14:25.530Z,7.10
2022-08-26T20:16:52.505Z,11.05
2022-08-26T20:19:37.847Z,6.85
2022-08-26T20:22:05.253Z,7.47
2022-08-26T20:24:32.615Z,17.50
2022-08-26T20:26:59.196Z,17.40
2022-08-26T20:29:26.021Z,9.25
2022-08-26T20:31:53.360Z,7.00
2022-08-26T20:34:20.854Z,9.13
2022-08-26T20:36:49.262Z,6.93
2022-08-26T20:39:16.968Z,7.05
2022-08-26T20:41:45.409Z,9.50
2022-08-26T20:44:13.747Z,7.85
2022-08-26T20:46:41.180Z,10.98
2022-08-26T20:49:08.248Z,6.32
2022-08-26T20:51:37.393Z,11.00
2022-08-26T20:54:06.318Z,9.35
2022-08-26T20:56:32.915Z,7.95
2022-08-26T20:59:01.004Z,7.72
2022-08-26T21:01:34.490Z,9.43
2022-08-26T21:04:05.062Z,8.63
2022-08-26T21:06:35.520Z,7.03
2022-08-26T21:09:05.900Z,11.05
2022-08-26T21:11:33.559Z,10.07
2022-08-26T21:14:16.230Z,6.40
2022-08-26T21:16:45.192Z,6.53
2022-08-26T21:19:14.966Z,6.68
2022-08-26T21:21:41.717Z,8.75
2022-08-26T21:24:09.137Z,7.63
2022-08-26T21:26:35.742Z,12.18
2022-08-26T21:29:03.109Z,11.82
2022-08-26T21:31:31.956Z,5.25
2022-08-26T21:33:59.451Z,7.90
2022-08-26T21:36:26.563Z,6.45
2022-08-26T21:38:56.237Z,8.93
2022-08-26T21:41:23.659Z,9.40
2022-08-26T21:43:51.815Z,9.07
2022-08-26T21:46:21.970Z,7.07
2022-08-26T21:48:51.804Z,8.32
2022-08-26T21:51:21.044Z,7.32
2022-08-26T21:53:48.590Z,8.70
2022-08-26T21:56:17.160Z,7.72
2022-08-26T21:58:44.212Z,9.07
2022-08-26T22:01:14.910Z,8.73
2022-08-26T22:03:47.396Z,8.80
2022-08-26T22:06:16.711Z,6.88
2022-08-26T22:08:43.726Z,6.80
2022-08-26T22:11:10.529Z,10.20
2022-08-26T22:13:39.207Z,6.70
2022-08-26T22:16:07.031Z,5.72
2022-08-26T22:18:34.443Z,8.10
2022-08-26T22:21:04.044Z,5.43
2022-08-26T22:23:30.941Z,6.97
2022-08-26T22:25:58.541Z,7.90
2022-08-26T22:28:26.090Z,7.85
2022-08-26T22:30:52.755Z,13.02
2022-08-26T22:33:20.085Z,8.10
2022-08-26T22:35:49.005Z,7.88
2022-08-26T22:38:16.134Z,9.80
2022-08-26T22:40:46.162Z,10.55
2022-08-26T22:43:13.788Z,12.05
2022-08-26T22:45:43.010Z,8.20
2022-08-26T22:48:11.472Z,9.85
2022-08-26T22:50:38.453Z,9.82
2022-08-26T22:53:05.110Z,8.63
2022-08-26T22:55:32.001Z,8.50
2022-08-26T22:57:59.018Z,7.18
2022-08-26T23:00:32.028Z,7.22
2022-08-26T23:02:59.588Z,8.32
2022-08-26T23:05:26.194Z,13.82
2022-08-26T23:07:53.929Z,6.75
2022-08-26T23:10:21.007Z,12.98
2022-08-26T23:12:47.615Z,12.20
2022-08-26T23:15:14.936Z,7.20
2022-08-26T23:17:42.996Z,12.65
2022-08-26T23:20:12.682Z,10.85
2022-08-26T23:22:40.183Z,5.95
2022-08-26T23:25:09.948Z,11.02
2022-08-26T23:27:39.609Z,8.30
2022-08-26T23:30:09.413Z,7.13
2022-08-26T23:32:36.184Z,11.77
2022-08-26T23:35:03.888Z,8.00
2022-08-26T23:37:34.227Z,8.27
2022-08-26T23:40:12.132Z,13.32
2022-08-26T23:42:39.092Z,12.10
2022-08-26T23:45:07.460Z,9.85
2022-08-26T23:47:34.588Z,9.73
2022-08-26T23:50:01.270Z,16.17
2022-08-26T23:52:46.867Z,5.07
2022-08-26T23:55:14.440Z,8.88
2022-08-26T23:57:41.671Z,10.45
